Time;durP1;ratioP1;P1;durP2;ratioP2;P2;SDS_P1;SDS_P2;PMS_P1;PMS_P2;Temp;Humidity;BMP_temperature;BMP_pressure;BME280_temperature;BME280_humidity;BME280_pressure;Samples;Min_cycle;Max_cycle;Signal;HPM_P1;HPM_P2
2022/01/08 00:01:58;;;;;;;4.63;1.90;;;5.30;99.90;;;;;;5042122;28;20189;-51
2022/01/08 00:04:24;;;;;;;2.73;1.90;;;5.40;99.90;;;;;;5038358;28;20281;-49
2022/01/08 00:06:50;;;;;;;5.73;2.13;;;5.40;99.90;;;;;;5041859;28;20179;-51
2022/01/08 00:09:15;;;;;;;3.40;2.17;;;5.50;99.90;;;;;;5041471;28;20184;-51
2022/01/08 00:11:42;;;;;;;5.00;2.03;;;5.40;99.90;;;;;;5032055;28;20847;-51
2022/01/08 00:14:10;;;;;;;4.23;2.30;;;5.50;99.90;;;;;;5028818;28;20197;-54
2022/01/08 00:16:37;;;;;;;3.17;2.23;;;5.50;99.90;;;;;;5028394;28;21126;-54
2022/01/08 00:19:04;;;;;;;13.00;2.20;;;5.60;99.90;;;;;;5031259;28;20466;-53
2022/01/08 00:21:29;;;;;;;4.13;2.23;;;5.50;99.90;;;;;;5034545;28;20472;-54
2022/01/08 00:23:55;;;;;;;2.80;2.13;;;5.60;99.90;;;;;;5029540;28;22311;-46
2022/01/08 00:26:21;;;;;;;4.50;2.47;;;5.70;99.90;;;;;;5031623;28;20175;-52
2022/01/08 00:28:46;;;;;;;2.27;1.80;;;5.80;99.90;;;;;;5031407;28;20834;-54
2022/01/08 00:31:13;;;;;;;2.97;2.20;;;5.80;99.90;;;;;;5033343;28;21973;-49
2022/01/08 00:33:39;;;;;;;5.13;2.20;;;5.70;99.90;;;;;;5030766;28;20615;-47
2022/01/08 00:36:06;;;;;;;9.30;1.80;;;5.80;99.90;;;;;;5030735;28;20881;-51
2022/01/08 00:38:32;;;;;;;3.43;1.90;;;5.70;99.90;;;;;;5032755;28;20465;-47
2022/01/08 00:40:58;;;;;;;2.93;1.73;;;5.80;99.90;;;;;;5029977;28;20994;-52
2022/01/08 00:43:24;;;;;;;3.33;1.90;;;5.80;99.90;;;;;;5031799;28;20438;-49
2022/01/08 00:45:49;;;;;;;2.67;1.73;;;5.90;99.90;;;;;;5030983;28;20190;-48
2022/01/08 00:48:15;;;;;;;3.13;1.93;;;6.10;99.90;;;;;;5030211;28;20681;-52
2022/01/08 00:50:41;;;;;;;2.70;1.83;;;6.10;99.90;;;;;;5031534;28;20212;-50
2022/01/08 00:53:06;;;;;;;3.63;1.90;;;6.10;99.90;;;;;;5029969;28;20746;-51
2022/01/08 00:55:32;;;;;;;2.37;1.73;;;6.10;99.90;;;;;;5032344;28;20192;-50
2022/01/08 00:57:57;;;;;;;2.80;1.80;;;6.20;99.90;;;;;;5028902;28;20695;-50
2022/01/08 01:00:23;;;;;;;2.50;1.97;;;6.40;99.90;;;;;;5029781;28;20215;-49
2022/01/08 01:02:49;;;;;;;2.70;1.60;;;6.50;99.90;;;;;;5030542;28;20589;-50
2022/01/08 01:05:15;;;;;;;3.80;1.90;;;6.60;99.90;;;;;;5028527;28;20464;-51
2022/01/08 01:07:40;;;;;;;4.67;2.20;;;6.50;99.90;;;;;;5029992;28;20312;-48
2022/01/08 01:10:09;;;;;;;4.53;2.40;;;6.50;99.90;;;;;;5028719;28;20204;-53
2022/01/08 01:12:35;;;;;;;3.60;1.80;;;6.70;99.90;;;;;;5031269;28;20192;-48
2022/01/08 01:15:01;;;;;;;3.47;2.20;;;6.70;99.90;;;;;;5031169;28;20524;-50
2022/01/08 01:17:27;;;;;;;3.73;2.40;;;6.80;99.90;;;;;;5034418;28;20937;-50
2022/01/08 01:19:52;;;;;;;4.20;2.30;;;6.70;99.90;;;;;;5033197;28;20576;-52
2022/01/08 01:22:21;;;;;;;5.93;2.00;;;6.70;99.90;;;;;;5030712;28;20457;-49
2022/01/08 01:24:48;;;;;;;5.00;2.10;;;6.60;99.90;;;;;;5034937;28;20187;-51
2022/01/08 01:30:14;;;;;;;2.77;1.70;;;6.60;99.90;;;;;;5034189;28;21318;-51
2022/01/08 01:48:50;;;;;;;5.43;2.20;;;6.00;99.90;;;;;;5034222;28;20438;-50
2022/01/08 01:51:23;;;;;;;4.03;1.87;;;6.00;99.90;;;;;;5033841;28;20464;-52
2022/01/08 01:53:50;;;;;;;2.80;1.50;;;6.00;99.90;;;;;;5036367;28;20188;-49
2022/01/08 01:56:19;;;;;;;2.80;1.40;;;6.00;99.90;;;;;;5033470;28;20560;-52
2022/01/08 01:58:46;;;;;;;2.00;1.60;;;5.80;99.90;;;;;;5035320;28;20462;-53
2022/01/08 02:01:12;;;;;;;2.57;2.37;;;5.80;99.90;;;;;;5033821;28;20503;-52
2022/01/08 02:03:39;;;;;;;4.03;1.70;;;5.80;99.90;;;;;;5032353;28;20434;-53
2022/01/08 02:06:06;;;;;;;3.20;1.80;;;5.70;99.90;;;;;;5048793;28;20426;-51
2022/01/08 02:08:33;;;;;;;4.83;2.07;;;5.70;99.90;;;;;;5034229;28;20431;-51
2022/01/08 02:10:58;;;;;;;2.60;1.67;;;5.60;99.90;;;;;;5033963;28;20450;-54
2022/01/08 02:13:26;;;;;;;2.47;1.60;;;5.60;99.90;;;;;;5033991;28;21013;-46
2022/01/08 02:15:53;;;;;;;3.47;1.80;;;5.60;99.90;;;;;;5034180;28;20812;-52
2022/01/08 02:18:27;;;;;;;2.67;1.80;;;5.60;99.90;;;;;;5033018;28;20449;-51
2022/01/08 02:21:01;;;;;;;4.43;1.60;;;5.50;99.90;;;;;;5032911;28;20446;-53
2022/01/08 02:23:26;;;;;;;3.90;1.73;;;5.40;99.90;;;;;;5034307;28;20442;-49
2022/01/08 02:26:04;;;;;;;4.20;1.60;;;5.40;99.90;;;;;;5032767;28;20422;-53
2022/01/08 02:28:30;;;;;;;3.63;2.07;;;5.30;99.90;;;;;;5034583;28;20643;-53
2022/01/08 02:30:56;;;;;;;3.07;1.53;;;5.30;99.90;;;;;;5034146;28;20565;-47
2022/01/08 02:33:25;;;;;;;2.67;1.70;;;5.20;99.90;;;;;;5031384;28;20282;-53
2022/01/08 02:35:51;;;;;;;2.50;1.70;;;5.20;99.90;;;;;;5033557;28;20184;-49
2022/01/08 02:38:16;;;;;;;2.00;1.40;;;5.10;99.90;;;;;;5033098;28;20828;-52
2022/01/08 02:40:50;;;;;;;2.10;1.90;;;5.00;99.90;;;;;;5033340;28;21566;-50
2022/01/08 02:43:16;;;;;;;1.40;1.17;;;4.80;99.90;;;;;;5033513;28;20620;-50
2022/01/08 02:45:42;;;;;;;2.17;1.37;;;4.90;99.90;;;;;;5031246;28;20973;-51
2022/01/08 02:48:09;;;;;;;1.50;1.20;;;4.80;99.90;;;;;;5033783;28;20713;-46
2022/01/08 02:50:34;;;;;;;4.10;1.27;;;4.80;99.90;;;;;;5033045;28;20212;-50
2022/01/08 02:53:00;;;;;;;4.20;1.37;;;4.70;99.90;;;;;;5032892;28;21524;-50
2022/01/08 02:55:25;;;;;;;1.43;1.27;;;4.70;99.90;;;;;;5034276;28;20183;-50
2022/01/08 02:57:51;;;;;;;4.13;1.30;;;4.60;99.90;;;;;;5030923;28;20690;-52
2022/01/08 03:00:19;;;;;;;1.60;1.10;;;4.60;99.90;;;;;;5033711;28;20258;-51
2022/01/08 03:02:46;;;;;;;2.83;1.30;;;4.60;99.90;;;;;;5033256;28;20190;-48
2022/01/08 03:05:13;;;;;;;1.30;1.03;;;4.60;99.90;;;;;;5034174;28;20450;-47
2022/01/08 03:07:39;;;;;;;2.00;1.30;;;4.60;99.90;;;;;;5032335;28;20811;-49
2022/01/08 03:10:07;;;;;;;1.87;1.20;;;4.60;99.90;;;;;;5032779;28;20469;-48
2022/01/08 03:12:33;;;;;;;2.70;1.20;;;4.60;99.90;;;;;;5033187;28;20438;-49
2022/01/08 03:14:59;;;;;;;3.20;1.03;;;4.60;99.90;;;;;;5033631;28;20496;-52
2022/01/08 03:17:24;;;;;;;1.40;1.30;;;4.60;99.90;;;;;;5032989;28;20184;-53
2022/01/08 03:19:52;;;;;;;1.87;1.47;;;4.60;99.90;;;;;;5035222;28;20487;-49
2022/01/08 03:22:18;;;;;;;1.30;1.07;;;4.60;99.90;;;;;;5036177;28;20480;-51
2022/01/08 03:24:44;;;;;;;2.57;1.60;;;4.60;99.90;;;;;;5034052;28;20878;-53
2022/01/08 03:27:09;;;;;;;1.90;1.50;;;4.60;99.90;;;;;;5034160;28;20430;-51
2022/01/08 03:29:35;;;;;;;4.90;1.17;;;4.60;99.90;;;;;;5035980;28;20577;-54
2022/01/08 03:32:01;;;;;;;2.07;1.23;;;4.70;99.90;;;;;;5034566;28;20300;-51
2022/01/08 03:34:27;;;;;;;4.03;1.60;;;4.60;99.90;;;;;;5035409;28;20678;-49
2022/01/08 03:36:52;;;;;;;2.20;1.50;;;4.60;99.90;;;;;;5035348;28;20237;-52
2022/01/08 03:39:18;;;;;;;1.53;1.20;;;4.70;99.90;;;;;;5035215;28;20873;-49
2022/01/08 03:41:45;;;;;;;2.73;1.60;;;4.70;99.90;;;;;;5035023;28;20198;-49
2022/01/08 03:44:11;;;;;;;1.67;1.40;;;4.70;99.90;;;;;;5032929;28;20468;-54
2022/01/08 03:46:37;;;;;;;2.90;1.50;;;4.80;99.90;;;;;;5034855;28;20457;-49
2022/01/08 03:51:31;;;;;;;1.60;1.40;;;4.70;99.90;;;;;;5034814;28;20468;-50
2022/01/08 03:53:57;;;;;;;4.30;1.87;;;4.70;99.90;;;;;;5034910;28;22100;-49
2022/01/08 03:56:23;;;;;;;1.60;1.43;;;4.60;99.90;;;;;;5034702;28;20442;-52
2022/01/08 03:58:49;;;;;;;1.70;1.30;;;4.50;99.90;;;;;;5035504;28;20846;-50
2022/01/08 04:01:15;;;;;;;1.40;1.20;;;4.40;99.90;;;;;;5034435;28;20468;-51
2022/01/08 04:03:41;;;;;;;2.17;1.67;;;4.30;99.90;;;;;;5034877;28;20202;-51
2022/01/08 04:06:06;;;;;;;2.40;1.90;;;4.10;99.90;;;;;;5035657;28;20434;-48
2022/01/08 04:08:33;;;;;;;1.90;1.50;;;4.10;99.90;;;;;;5035211;28;20206;-51
2022/01/08 04:10:59;;;;;;;4.03;1.97;;;4.10;99.90;;;;;;5035176;28;20269;-54
2022/01/08 04:13:31;;;;;;;2.17;1.73;;;4.00;99.90;;;;;;5032771;28;20449;-54
2022/01/08 04:16:02;;;;;;;2.67;1.70;;;4.10;99.90;;;;;;5034347;28;20495;-53
2022/01/08 04:18:27;;;;;;;2.90;1.47;;;4.00;99.90;;;;;;5036510;28;20478;-52
2022/01/08 04:21:17;;;;;;;2.00;1.60;;;4.00;99.90;;;;;;5033063;28;20528;-53
2022/01/08 04:23:41;;;;;;;1.90;1.70;;;4.00;99.90;;;;;;5034509;28;20558;-54
2022/01/08 04:26:07;;;;;;;3.70;2.00;;;4.00;99.90;;;;;;5034515;28;20433;-53
2022/01/08 04:28:32;;;;;;;3.90;2.20;;;4.10;99.90;;;;;;5035342;28;20198;-53
2022/01/08 04:30:58;;;;;;;2.13;1.93;;;4.00;99.90;;;;;;5033880;28;20277;-51
2022/01/08 04:33:23;;;;;;;3.17;2.27;;;4.00;99.90;;;;;;5035747;28;20227;-49
2022/01/08 04:35:49;;;;;;;1.67;1.50;;;4.10;99.90;;;;;;5033809;28;20331;-51
2022/01/08 04:38:15;;;;;;;1.90;1.50;;;4.20;99.90;;;;;;5032332;28;20211;-47
2022/01/08 04:40:40;;;;;;;3.67;1.73;;;4.20;99.90;;;;;;5034452;28;20204;-51
2022/01/08 04:43:06;;;;;;;2.53;1.73;;;4.30;99.90;;;;;;5033344;28;20179;-52
2022/01/08 04:45:32;;;;;;;2.87;1.83;;;4.30;99.90;;;;;;5034274;28;20192;-50
2022/01/08 04:48:00;;;;;;;2.20;2.00;;;4.30;99.90;;;;;;5032820;28;20438;-51
2022/01/08 04:50:27;;;;;;;1.60;1.43;;;4.30;99.90;;;;;;5033220;28;20219;-49
2022/01/08 04:52:53;;;;;;;2.23;2.03;;;4.40;99.90;;;;;;5033147;28;20475;-51
2022/01/08 04:55:19;;;;;;;2.37;1.60;;;4.40;99.90;;;;;;5033733;28;20923;-54
2022/01/08 04:57:46;;;;;;;2.03;1.63;;;4.40;99.90;;;;;;5035170;28;20442;-49
2022/01/08 05:00:12;;;;;;;2.07;1.80;;;4.40;99.90;;;;;;5032126;28;20899;-51
2022/01/08 05:02:38;;;;;;;3.73;2.03;;;4.50;99.90;;;;;;5033591;28;20757;-50
2022/01/08 05:05:04;;;;;;;1.87;1.60;;;4.50;99.90;;;;;;5033339;28;20438;-48
2022/01/08 05:07:30;;;;;;;1.60;1.40;;;4.50;99.90;;;;;;5032605;28;20240;-49
2022/01/08 05:09:55;;;;;;;1.70;1.60;;;4.60;99.90;;;;;;5033807;28;20466;-53
2022/01/08 05:12:21;;;;;;;1.60;1.20;;;4.60;99.90;;;;;;5032988;28;20195;-53
2022/01/08 05:14:47;;;;;;;2.40;1.40;;;4.60;99.90;;;;;;5033500;28;20680;-49
2022/01/08 05:17:14;;;;;;;1.30;1.10;;;4.60;99.90;;;;;;5032217;28;20606;-51
2022/01/08 05:19:49;;;;;;;1.40;1.30;;;4.70;99.90;;;;;;5032233;28;21054;-52
2022/01/08 05:22:24;;;;;;;1.37;1.00;;;4.70;99.90;;;;;;5034567;28;20433;-49
2022/01/08 05:24:50;;;;;;;2.53;1.10;;;4.70;99.90;;;;;;5033942;28;20520;-53
2022/01/08 05:27:17;;;;;;;1.93;1.07;;;4.60;99.90;;;;;;5034264;28;20446;-51
2022/01/08 05:29:47;;;;;;;1.40;1.10;;;4.60;99.90;;;;;;5033029;28;20515;-49
2022/01/08 05:32:16;;;;;;;1.57;1.00;;;4.60;99.90;;;;;;5032347;28;20756;-48
2022/01/08 05:34:47;;;;;;;1.80;1.30;;;4.60;99.90;;;;;;5033223;28;20508;-51
2022/01/08 05:37:14;;;;;;;1.20;0.90;;;4.60;99.90;;;;;;5034068;28;20796;-52
2022/01/08 05:39:40;;;;;;;1.10;0.90;;;4.60;99.90;;;;;;5032379;28;21452;-51
2022/01/08 05:42:06;;;;;;;2.60;0.90;;;4.50;99.90;;;;;;5033668;28;20488;-48
2022/01/08 05:44:32;;;;;;;1.50;1.10;;;4.60;99.90;;;;;;5033455;28;20430;-51
2022/01/08 05:46:58;;;;;;;1.50;1.20;;;4.60;99.90;;;;;;5033179;28;20426;-51
2022/01/08 05:49:24;;;;;;;1.73;1.10;;;4.70;99.90;;;;;;5032229;28;20503;-54
2022/01/08 05:51:50;;;;;;;1.80;1.07;;;4.70;99.90;;;;;;5034082;28;20216;-51
2022/01/08 05:54:15;;;;;;;2.13;1.23;;;4.60;99.90;;;;;;5033973;28;20610;-53
2022/01/08 05:56:41;;;;;;;2.03;1.20;;;4.60;99.90;;;;;;5031875;28;20441;-50
2022/01/08 05:59:06;;;;;;;1.80;1.30;;;4.60;99.90;;;;;;5032115;28;20235;-54
2022/01/08 06:01:33;;;;;;;4.30;2.40;;;4.70;99.90;;;;;;5034773;28;20199;-50
2022/01/08 06:04:00;;;;;;;1.50;1.30;;;4.70;99.90;;;;;;5038066;28;20196;-52
2022/01/08 06:06:25;;;;;;;1.90;1.30;;;4.70;99.90;;;;;;5037369;28;20426;-48
2022/01/08 06:08:51;;;;;;;2.77;1.27;;;4.70;99.90;;;;;;5037433;28;20445;-50
2022/01/08 06:11:16;;;;;;;1.50;1.40;;;4.70;99.90;;;;;;5038096;28;20801;-50
2022/01/08 06:13:42;;;;;;;1.40;1.20;;;4.80;99.90;;;;;;5036834;28;20205;-46
2022/01/08 06:16:08;;;;;;;4.00;1.67;;;4.90;99.90;;;;;;5037329;28;20769;-52
2022/01/08 06:18:34;;;;;;;2.13;1.40;;;4.80;99.90;;;;;;5037217;28;20660;-49
2022/01/08 06:21:00;;;;;;;2.20;1.50;;;4.80;99.90;;;;;;5037710;28;20212;-48
2022/01/08 06:23:27;;;;;;;2.93;1.50;;;4.70;99.90;;;;;;5037129;28;20842;-51
2022/01/08 06:25:52;;;;;;;2.10;1.40;;;4.60;99.90;;;;;;5035628;28;20531;-48
2022/01/08 06:28:18;;;;;;;2.07;1.20;;;4.50;99.90;;;;;;5036953;28;21016;-51
2022/01/08 06:30:44;;;;;;;2.10;1.37;;;4.50;99.90;;;;;;5035875;28;20247;-47
2022/01/08 06:33:09;;;;;;;5.03;1.70;;;4.40;99.90;;;;;;5036280;28;20711;-50
2022/01/08 06:35:35;;;;;;;1.43;1.30;;;4.20;99.90;;;;;;5035645;28;20184;-50
2022/01/08 06:38:00;;;;;;;1.50;1.20;;;4.20;99.90;;;;;;5036808;28;20836;-52
2022/01/08 06:40:26;;;;;;;3.37;1.20;;;4.20;99.90;;;;;;5036938;28;20646;-53
2022/01/08 06:42:51;;;;;;;2.57;1.37;;;4.30;99.90;;;;;;5034950;28;20401;-49
2022/01/08 06:45:17;;;;;;;2.10;1.50;;;4.20;99.90;;;;;;5036525;28;20263;-53
2022/01/08 06:47:45;;;;;;;1.83;1.30;;;4.10;99.90;;;;;;5035669;28;20191;-49
2022/01/08 06:50:12;;;;;;;2.63;1.60;;;4.10;99.90;;;;;;5037121;28;20618;-49
2022/01/08 06:52:38;;;;;;;1.63;1.33;;;4.10;99.90;;;;;;5037192;28;20433;-50
2022/01/08 06:55:04;;;;;;;3.17;1.80;;;4.10;99.90;;;;;;5036472;28;22095;-53
2022/01/08 06:57:30;;;;;;;5.33;1.27;;;4.10;99.90;;;;;;5037902;28;20457;-52
2022/01/08 06:59:55;;;;;;;1.97;1.43;;;4.10;99.90;;;;;;5036436;28;20568;-49
2022/01/08 07:02:21;;;;;;;2.90;1.33;;;4.10;99.90;;;;;;5036156;28;20482;-47
2022/01/08 07:04:46;;;;;;;1.57;1.47;;;4.10;99.90;;;;;;5034234;28;20204;-46
2022/01/08 07:07:12;;;;;;;6.40;1.50;;;4.10;99.90;;;;;;5034881;28;20259;-49
2022/01/08 07:09:37;;;;;;;1.70;1.30;;;4.10;99.90;;;;;;5036979;28;20257;-54
2022/01/08 07:12:04;;;;;;;1.20;1.00;;;4.10;99.90;;;;;;5034310;28;20191;-51
2022/01/08 07:14:29;;;;;;;1.50;1.40;;;4.00;99.90;;;;;;5036496;28;20191;-51
2022/01/08 07:16:55;;;;;;;1.60;1.50;;;4.00;99.90;;;;;;5035041;28;20446;-48
2022/01/08 07:19:21;;;;;;;2.53;1.50;;;4.00;99.90;;;;;;5035805;28;20211;-49
2022/01/08 07:21:46;;;;;;;5.40;1.50;;;4.00;99.90;;;;;;5036169;28;20187;-52
2022/01/08 07:24:12;;;;;;;2.20;1.87;;;4.10;99.90;;;;;;5036163;28;20457;-49
2022/01/08 07:26:37;;;;;;;2.40;2.13;;;4.00;99.90;;;;;;5037306;28;20771;-51
2022/01/08 07:29:03;;;;;;;2.00;1.63;;;4.10;99.90;;;;;;5034417;28;20199;-51
2022/01/08 07:31:29;;;;;;;1.97;1.60;;;4.10;99.90;;;;;;5036720;28;20794;-48
2022/01/08 07:33:54;;;;;;;2.60;1.77;;;4.10;99.90;;;;;;5035309;28;20222;-49
2022/01/08 07:36:20;;;;;;;1.83;1.53;;;4.10;99.90;;;;;;5034868;28;20195;-48
2022/01/08 07:38:47;;;;;;;2.50;1.60;;;4.20;99.90;;;;;;5035789;28;20754;-50
2022/01/08 07:41:13;;;;;;;5.27;2.50;;;4.20;99.90;;;;;;5035230;28;20250;-52
2022/01/08 07:43:39;;;;;;;8.43;2.70;;;4.30;99.90;;;;;;5037654;28;20513;-50
2022/01/08 07:46:04;;;;;;;2.10;1.90;;;4.30;99.90;;;;;;5034701;28;20426;-50
2022/01/08 07:48:30;;;;;;;5.17;1.80;;;4.30;99.90;;;;;;5034469;28;20714;-50
2022/01/08 07:50:56;;;;;;;2.40;1.80;;;4.40;99.90;;;;;;5035842;28;20216;-50
2022/01/08 07:53:21;;;;;;;2.53;2.30;;;4.40;99.90;;;;;;5035375;28;20256;-49
2022/01/08 07:55:47;;;;;;;3.10;2.00;;;4.40;99.90;;;;;;5036485;28;20199;-50
2022/01/08 07:58:13;;;;;;;2.57;1.70;;;4.50;99.90;;;;;;5033939;28;20851;-49
2022/01/08 08:00:38;;;;;;;2.60;2.13;;;4.50;99.90;;;;;;5034162;28;20211;-52
2022/01/08 08:03:04;;;;;;;2.40;2.17;;;4.40;99.90;;;;;;5035036;28;20184;-48
2022/01/08 08:05:31;;;;;;;2.17;1.93;;;4.30;99.90;;;;;;5034198;28;20345;-52
2022/01/08 08:07:57;;;;;;;3.20;2.10;;;4.40;99.90;;;;;;5034867;28;20299;-49
2022/01/08 08:10:25;;;;;;;5.30;3.07;;;4.30;99.90;;;;;;5034187;28;20710;-48
2022/01/08 08:12:55;;;;;;;3.63;2.83;;;4.40;99.90;;;;;;5034449;28;20231;-50
2022/01/08 08:15:21;;;;;;;3.47;2.40;;;4.30;99.90;;;;;;5033831;28;21584;-53
2022/01/08 08:17:47;;;;;;;4.07;2.60;;;4.30;99.90;;;;;;5034255;28;21016;-49
2022/01/08 08:20:13;;;;;;;2.70;2.40;;;4.30;99.90;;;;;;5036387;28;20465;-49
2022/01/08 08:22:40;;;;;;;6.83;2.93;;;4.30;99.90;;;;;;5034474;28;20244;-51
2022/01/08 08:25:07;;;;;;;3.93;3.00;;;4.20;99.90;;;;;;5034941;28;20195;-53
2022/01/08 08:27:33;;;;;;;5.70;3.07;;;4.10;99.90;;;;;;5030889;28;20951;-49
2022/01/08 08:29:59;;;;;;;4.03;3.10;;;4.10;99.90;;;;;;5034954;28;20470;-47
2022/01/08 08:32:24;;;;;;;3.00;2.60;;;4.20;99.90;;;;;;5034029;28;20278;-49
2022/01/08 08:34:53;;;;;;;4.37;2.93;;;4.10;99.90;;;;;;5033764;28;20257;-47
2022/01/08 08:37:19;;;;;;;4.07;2.67;;;4.10;99.90;;;;;;5035766;28;20188;-51
2022/01/08 08:39:44;;;;;;;4.50;3.00;;;4.10;99.90;;;;;;5032215;28;20531;-51
2022/01/08 08:42:10;;;;;;;10.87;3.23;;;4.20;99.90;;;;;;5034537;28;20196;-52
2022/01/08 08:44:35;;;;;;;4.80;4.30;;;4.10;99.90;;;;;;5034523;28;20558;-50
2022/01/08 08:47:03;;;;;;;6.50;3.13;;;4.10;99.90;;;;;;5033893;28;20192;-53
2022/01/08 08:49:29;;;;;;;2.67;2.43;;;4.10;99.90;;;;;;5034387;28;20203;-49
2022/01/08 08:51:55;;;;;;;7.40;2.57;;;4.10;99.90;;;;;;5034253;28;20443;-51
2022/01/08 08:54:20;;;;;;;5.40;3.27;;;4.20;99.90;;;;;;5035674;28;20198;-47
2022/01/08 08:56:46;;;;;;;4.67;2.87;;;4.20;99.90;;;;;;5032554;28;20196;-51
2022/01/08 08:59:11;;;;;;;10.03;2.80;;;4.20;99.90;;;;;;5026472;28;20918;-51
2022/01/08 09:01:38;;;;;;;11.20;3.50;;;4.20;99.90;;;;;;5034185;28;20649;-53
2022/01/08 09:04:04;;;;;;;3.47;2.93;;;4.20;99.90;;;;;;5036162;28;20197;-46
2022/01/08 09:06:30;;;;;;;5.53;2.57;;;4.30;99.90;;;;;;5037829;28;20440;-50
2022/01/08 09:08:56;;;;;;;6.00;3.77;;;4.30;99.90;;;;;;5035309;28;20450;-49
2022/01/08 09:11:22;;;;;;;5.27;3.27;;;4.40;99.90;;;;;;5038286;28;21024;-52
2022/01/08 09:13:48;;;;;;;5.27;3.70;;;4.40;99.90;;;;;;5037017;28;20430;-47
2022/01/08 09:16:14;;;;;;;9.00;5.13;;;4.40;99.90;;;;;;5037117;28;20812;-50
2022/01/08 09:18:41;;;;;;;5.60;3.93;;;4.50;99.90;;;;;;5041530;28;20462;-50
2022/01/08 09:21:07;;;;;;;7.87;4.33;;;4.40;99.90;;;;;;5040961;28;20196;-51
2022/01/08 09:23:34;;;;;;;6.60;5.10;;;4.40;99.90;;;;;;5037940;28;20822;-49
2022/01/08 09:26:00;;;;;;;3.20;2.90;;;4.40;99.90;;;;;;5039253;28;20442;-53
2022/01/08 09:28:28;;;;;;;5.13;3.30;;;4.40;99.90;;;;;;5035210;28;20841;-52
2022/01/08 09:30:54;;;;;;;5.47;3.70;;;4.40;99.90;;;;;;5041882;28;20982;-50
2022/01/08 09:33:20;;;;;;;7.00;2.90;;;4.50;99.90;;;;;;5034585;28;20545;-50
2022/01/08 09:35:46;;;;;;;6.40;2.53;;;4.50;99.90;;;;;;5032875;28;20434;-50
2022/01/08 09:38:12;;;;;;;4.67;3.27;;;4.50;99.90;;;;;;5038281;28;20839;-50
2022/01/08 09:40:37;;;;;;;7.40;2.90;;;4.50;99.90;;;;;;5038136;28;20462;-50
2022/01/08 09:43:04;;;;;;;6.00;2.90;;;4.50;99.90;;;;;;5036864;28;20474;-52
2022/01/08 09:45:29;;;;;;;4.47;2.40;;;4.40;99.90;;;;;;5039247;28;20184;-52
2022/01/08 09:47:55;;;;;;;6.47;3.47;;;4.40;99.90;;;;;;5033314;28;20442;-50
2022/01/08 09:50:21;;;;;;;6.27;2.87;;;4.40;99.90;;;;;;5039621;28;20223;-52
2022/01/08 09:52:47;;;;;;;8.00;3.13;;;4.50;99.90;;;;;;5036742;28;20538;-48
2022/01/08 09:55:12;;;;;;;4.03;2.53;;;4.40;99.90;;;;;;5039677;28;20184;-48
2022/01/08 09:57:38;;;;;;;2.97;2.67;;;4.40;99.90;;;;;;5040090;28;20444;-49
2022/01/08 10:00:16;;;;;;;6.37;3.07;;;4.40;99.90;;;;;;5034972;28;20225;-52
2022/01/08 10:02:44;;;;;;;3.27;2.97;;;4.50;99.90;;;;;;5033979;28;20943;-51
2022/01/08 10:05:12;;;;;;;4.60;3.00;;;4.50;99.90;;;;;;5035081;28;20495;-50
2022/01/08 10:07:37;;;;;;;5.30;3.10;;;4.60;99.90;;;;;;5034894;28;20781;-52
2022/01/08 10:10:15;;;;;;;8.83;3.43;;;4.70;99.90;;;;;;5041700;28;20507;-51
2022/01/08 10:12:58;;;;;;;5.50;3.67;;;4.80;99.90;;;;;;5037829;28;20631;-53
2022/01/08 10:18:30;;;;;;;5.77;2.33;;;4.90;99.90;;;;;;5033744;28;21105;-51
2022/01/08 10:20:57;;;;;;;7.00;2.70;;;4.80;99.90;;;;;;5037375;28;20464;-50
2022/01/08 10:23:28;;;;;;;4.83;2.83;;;4.80;99.90;;;;;;5038413;28;20440;-49
2022/01/08 10:25:57;;;;;;;5.97;3.07;;;4.90;99.90;;;;;;5035314;28;20433;-54
2022/01/08 10:28:32;;;;;;;4.10;2.40;;;5.00;99.90;;;;;;5037842;28;20934;-50
2022/01/08 10:31:13;;;;;;;5.80;3.17;;;5.10;99.90;;;;;;5038238;28;20461;-53
2022/01/08 10:33:40;;;;;;;6.33;2.37;;;5.10;99.90;;;;;;5051491;28;20434;-52
2022/01/08 10:36:06;;;;;;;4.47;2.20;;;5.00;99.90;;;;;;5035511;28;20525;-51
2022/01/08 10:38:31;;;;;;;7.53;2.50;;;5.00;99.90;;;;;;5026503;28;20469;-52
2022/01/08 10:41:01;;;;;;;5.10;2.33;;;5.00;99.90;;;;;;5032193;28;20560;-55
2022/01/08 10:43:33;;;;;;;4.20;2.50;;;5.00;99.90;;;;;;5034521;28;20658;-50
2022/01/08 10:46:17;;;;;;;10.20;3.00;;;5.00;99.90;;;;;;5038053;28;20836;-54
2022/01/08 10:48:49;;;;;;;6.60;3.17;;;5.00;99.90;;;;;;5033771;28;20442;-52
2022/01/08 10:51:24;;;;;;;4.93;2.57;;;4.90;99.90;;;;;;5031956;28;20812;-54
2022/01/08 10:56:37;;;;;;;4.53;2.67;;;5.00;99.90;;;;;;5038392;28;20618;-53
2022/01/08 10:59:10;;;;;;;4.47;2.93;;;5.00;99.90;;;;;;5047742;28;21075;-53
2022/01/08 11:01:46;;;;;;;4.00;3.30;;;5.00;99.90;;;;;;5053114;28;20198;-51
2022/01/08 11:04:35;;;;;;;6.23;2.87;;;5.10;99.90;;;;;;5034904;28;20808;-47
2022/01/08 11:07:06;;;;;;;2.93;2.47;;;4.90;99.90;;;;;;5051899;28;20456;-49
2022/01/08 11:09:32;;;;;;;7.30;2.83;;;5.00;99.90;;;;;;5053257;28;20441;-48
2022/01/08 11:12:00;;;;;;;5.00;2.93;;;5.00;99.90;;;;;;5048903;28;20453;-50
2022/01/08 11:17:19;;;;;;;4.17;2.90;;;4.90;99.90;;;;;;5050130;28;20952;-49
2022/01/08 11:19:52;;;;;;;6.73;2.80;;;4.80;99.90;;;;;;5049206;28;20502;-49
2022/01/08 11:22:21;;;;;;;2.67;2.30;;;4.90;99.90;;;;;;5051815;28;20429;-50
2022/01/08 11:25:01;;;;;;;4.50;2.43;;;4.90;99.90;;;;;;5039091;28;20453;-52
2022/01/08 11:28:00;;;;;;;2.77;2.00;;;4.90;99.90;;;;;;5051738;28;20429;-50
2022/01/08 11:30:31;;;;;;;3.70;2.10;;;4.90;99.90;;;;;;5044800;28;20879;-52
2022/01/08 11:33:04;;;;;;;3.10;2.37;;;4.90;99.90;;;;;;5051321;28;20844;-53
2022/01/08 11:35:31;;;;;;;8.47;2.37;;;4.80;99.90;;;;;;5046648;28;20457;-51
2022/01/08 11:38:02;;;;;;;4.53;2.33;;;4.80;99.90;;;;;;5046791;28;20949;-50
2022/01/08 11:40:28;;;;;;;2.73;2.53;;;4.80;99.90;;;;;;5040143;28;20528;-53
2022/01/08 11:42:54;;;;;;;6.37;2.40;;;4.90;99.90;;;;;;5042355;28;20512;-50
2022/01/08 11:45:24;;;;;;;3.03;2.57;;;4.90;99.90;;;;;;5033033;28;20510;-53
2022/01/08 11:47:52;;;;;;;6.17;2.30;;;5.00;99.90;;;;;;5051998;28;20187;-54
2022/01/08 11:50:23;;;;;;;2.90;2.43;;;5.20;99.90;;;;;;5054579;28;20433;-52
2022/01/08 11:53:20;;;;;;;6.70;2.53;;;5.30;99.90;;;;;;5054130;28;20425;-50
2022/01/08 11:56:01;;;;;;;2.97;2.50;;;5.30;99.90;;;;;;5051661;28;20985;-51
2022/01/08 11:58:30;;;;;;;3.27;2.50;;;5.40;99.90;;;;;;5051926;28;20823;-53
2022/01/08 12:01:14;;;;;;;3.90;2.50;;;5.60;99.90;;;;;;5043365;28;20837;-51
2022/01/08 12:03:50;;;;;;;3.43;2.30;;;5.70;99.90;;;;;;5048339;28;20442;-53
2022/01/08 12:06:18;;;;;;;2.90;2.27;;;5.50;99.90;;;;;;5046669;28;20486;-52
2022/01/08 12:09:21;;;;;;;3.77;2.10;;;5.50;99.90;;;;;;5049147;28;20444;-52
2022/01/08 12:11:46;;;;;;;2.87;2.57;;;5.40;99.90;;;;;;5052366;28;20603;-50
2022/01/08 12:14:13;;;;;;;4.73;2.50;;;5.20;99.90;;;;;;5049889;28;20450;-52
2022/01/08 12:16:41;;;;;;;6.00;2.67;;;5.20;99.90;;;;;;5051758;28;20191;-52
2022/01/08 12:19:25;;;;;;;6.67;2.93;;;5.20;99.90;;;;;;5048931;28;20548;-50
2022/01/08 12:21:51;;;;;;;3.87;2.70;;;5.20;99.90;;;;;;5046874;28;20678;-54
2022/01/08 12:24:26;;;;;;;6.30;3.00;;;5.20;99.90;;;;;;5049390;28;20484;-53
2022/01/08 12:26:56;;;;;;;3.87;2.50;;;5.30;99.90;;;;;;5049133;28;20533;-51
2022/01/08 12:29:42;;;;;;;3.10;2.33;;;5.40;99.90;;;;;;5053064;28;20441;-53
2022/01/08 12:35:02;;;;;;;3.10;2.30;;;5.80;99.90;;;;;;5047534;28;20467;-53
2022/01/08 12:37:39;;;;;;;4.20;2.50;;;6.30;99.90;;;;;;5050847;28;20425;-49
2022/01/08 12:40:07;;;;;;;3.60;2.67;;;6.50;99.90;;;;;;5045269;28;20891;-50
2022/01/08 12:42:35;;;;;;;3.33;2.33;;;6.60;99.90;;;;;;5050517;28;20888;-53
2022/01/08 12:45:13;;;;;;;2.60;2.20;;;6.60;99.90;;;;;;5049666;28;20564;-54
2022/01/08 12:48:00;;;;;;;4.30;2.50;;;6.80;99.90;;;;;;5052280;28;20468;-54
2022/01/08 12:50:29;;;;;;;5.33;2.50;;;7.00;99.90;;;;;;5053235;28;20435;-52
2022/01/08 12:53:03;;;;;;;3.00;2.40;;;6.90;99.90;;;;;;5052871;28;20432;-51
2022/01/08 12:55:54;;;;;;;4.00;2.10;;;6.80;99.90;;;;;;5051638;28;20501;-54
2022/01/08 12:58:23;;;;;;;3.87;2.20;;;6.70;99.90;;;;;;5051695;28;20837;-51
2022/01/08 13:01:30;;;;;;;3.80;2.43;;;6.70;99.90;;;;;;5051466;28;20445;-50
2022/01/08 13:03:57;;;;;;;4.60;2.20;;;6.60;99.90;;;;;;5051588;28;20734;-53
2022/01/08 13:06:30;;;;;;;4.03;2.50;;;6.50;99.90;;;;;;5050563;28;20876;-53
2022/01/08 13:08:56;;;;;;;4.27;2.20;;;6.50;99.90;;;;;;5054212;28;20807;-53
2022/01/08 13:11:25;;;;;;;2.90;1.80;;;6.50;99.90;;;;;;5051110;28;20514;-52
2022/01/08 13:13:57;;;;;;;5.87;2.50;;;6.50;99.90;;;;;;5055921;28;21055;-52
2022/01/08 13:16:36;;;;;;;4.87;2.60;;;6.30;99.90;;;;;;5055487;28;20453;-52
2022/01/08 13:19:10;;;;;;;3.13;2.20;;;6.10;99.90;;;;;;5056537;28;20875;-52
2022/01/08 13:21:36;;;;;;;8.23;2.63;;;6.20;99.90;;;;;;5036940;28;20436;-52
2022/01/08 13:24:22;;;;;;;7.33;2.17;;;6.30;99.90;;;;;;5059158;28;20444;-53
2022/01/08 13:26:49;;;;;;;4.80;2.40;;;6.20;99.90;;;;;;5060405;28;20429;-52
2022/01/08 13:29:33;;;;;;;4.03;2.10;;;6.30;99.90;;;;;;5056646;28;20453;-51
2022/01/08 13:32:00;;;;;;;3.10;1.80;;;6.30;99.90;;;;;;5054433;28;20569;-52
2022/01/08 13:34:51;;;;;;;3.13;2.37;;;6.20;99.90;;;;;;5055049;28;20986;-50
2022/01/08 13:37:20;;;;;;;3.60;2.67;;;6.10;99.90;;;;;;5056255;28;20917;-52